Time;durP1;ratioP1;P1;durP2;ratioP2;P2;SDS_P1;SDS_P2;PMS_P1;PMS_P2;Temp;Humidity;BMP_temperature;BMP_pressure;BME280_temperature;BME280_humidity;BME280_pressure;Samples;Min_cycle;Max_cycle;Signal;HPM_P1;HPM_P2
2021/05/18 00:01:23;;;;;;;0.60;0.40;;;12.80;65.40;;;;;;5070386;28;20501;-76
2021/05/18 00:03:49;;;;;;;1.07;0.50;;;12.80;65.50;;;;;;5054488;28;20048;-76
2021/05/18 00:06:15;;;;;;;2.60;0.40;;;12.80;65.40;;;;;;5071942;28;20118;-76
2021/05/18 00:11:44;;;;;;;0.80;0.37;;;12.60;66.00;;;;;;5072408;28;20079;-76
2021/05/18 00:14:12;;;;;;;3.27;0.30;;;12.60;65.50;;;;;;5060019;28;20065;-76
2021/05/18 00:16:38;;;;;;;2.17;0.40;;;12.60;65.70;;;;;;5055599;28;20437;-76
2021/05/18 00:19:06;;;;;;;1.17;0.40;;;12.70;65.50;;;;;;5072517;28;20056;-76
2021/05/18 00:21:32;;;;;;;3.83;0.40;;;12.80;65.30;;;;;;5038780;28;20039;-76
2021/05/18 00:23:57;;;;;;;1.97;0.40;;;12.90;65.00;;;;;;5051832;28;20044;-77
2021/05/18 00:26:23;;;;;;;1.70;0.53;;;12.90;64.70;;;;;;5051765;28;20041;-76
2021/05/18 00:28:49;;;;;;;3.03;0.50;;;12.80;64.80;;;;;;5043496;28;20475;-76
2021/05/18 00:31:15;;;;;;;1.07;0.40;;;12.80;65.10;;;;;;5070798;28;20428;-76
2021/05/18 00:33:42;;;;;;;1.17;0.50;;;12.70;65.20;;;;;;5047905;28;20128;-76
2021/05/18 00:36:10;;;;;;;4.53;0.70;;;12.70;65.20;;;;;;5046603;28;20025;-77
2021/05/18 00:38:36;;;;;;;1.70;0.30;;;12.60;65.10;;;;;;5044960;28;20035;-77
2021/05/18 00:41:02;;;;;;;0.87;0.47;;;12.60;65.30;;;;;;5062920;28;20036;-76
2021/05/18 00:43:28;;;;;;;1.87;0.40;;;12.50;65.50;;;;;;5068575;28;20119;-76
2021/05/18 00:45:54;;;;;;;0.57;0.27;;;12.50;65.60;;;;;;5045724;28;20116;-76
2021/05/18 00:48:22;;;;;;;1.10;0.30;;;12.50;65.50;;;;;;5071755;28;20074;-76
2021/05/18 00:50:52;;;;;;;2.93;0.30;;;12.50;65.20;;;;;;5048755;28;20025;-76
2021/05/18 00:53:18;;;;;;;0.40;0.30;;;12.50;65.10;;;;;;5048371;28;20033;-76
2021/05/18 00:56:05;;;;;;;0.73;0.50;;;12.50;65.10;;;;;;5065754;28;20040;-76
2021/05/18 00:58:37;;;;;;;0.93;0.40;;;12.50;65.20;;;;;;5051811;28;20449;-76
2021/05/18 01:01:06;;;;;;;2.08;0.73;;;12.50;65.30;;;;;;5071936;28;20139;-76
2021/05/18 01:03:34;;;;;;;1.13;0.50;;;12.50;65.40;;;;;;5054120;28;20051;-76
2021/05/18 01:08:47;;;;;;;0.87;0.50;;;12.40;66.10;;;;;;5070193;28;20114;-76
2021/05/18 01:11:15;;;;;;;0.97;0.40;;;12.40;66.00;;;;;;5071014;28;20219;-76
2021/05/18 01:13:41;;;;;;;0.67;0.40;;;12.40;66.70;;;;;;5054121;28;20515;-76
2021/05/18 01:16:10;;;;;;;1.80;0.60;;;12.30;66.10;;;;;;5071584;28;20948;-76
2021/05/18 01:18:44;;;;;;;0.83;0.40;;;12.30;66.00;;;;;;5071350;28;20098;-76
2021/05/18 01:21:13;;;;;;;1.70;0.30;;;12.30;65.80;;;;;;5049618;28;20048;-76
2021/05/18 01:23:40;;;;;;;3.43;0.30;;;12.40;65.80;;;;;;5070692;28;20051;-76
2021/05/18 01:26:07;;;;;;;2.53;0.30;;;12.40;65.80;;;;;;5053223;28;20064;-76
2021/05/18 01:28:32;;;;;;;2.13;0.60;;;12.40;65.90;;;;;;5064701;28;20024;-76
2021/05/18 01:31:00;;;;;;;1.20;0.50;;;12.40;66.00;;;;;;5066648;28;20040;-76
2021/05/18 01:33:26;;;;;;;2.37;0.60;;;12.50;65.70;;;;;;5050583;28;20032;-76
2021/05/18 01:35:54;;;;;;;3.13;0.30;;;12.40;65.60;;;;;;5067967;28;20024;-77
2021/05/18 01:38:23;;;;;;;2.30;0.43;;;12.40;65.90;;;;;;5067954;28;20025;-77
2021/05/18 01:43:34;;;;;;;1.43;0.37;;;12.30;65.60;;;;;;5068247;28;20056;-76
2021/05/18 01:46:00;;;;;;;3.93;0.30;;;12.30;65.70;;;;;;5052538;28;20033;-76
2021/05/18 01:48:26;;;;;;;1.67;0.50;;;12.40;65.70;;;;;;5049613;28;20028;-76
2021/05/18 01:50:52;;;;;;;1.07;0.30;;;12.50;65.70;;;;;;5050609;28;20024;-76
2021/05/18 01:53:19;;;;;;;3.67;0.40;;;12.50;65.50;;;;;;5045349;28;20021;-76
2021/05/18 01:58:20;;;;;;;2.07;0.80;;;12.60;65.50;;;;;;5073877;28;20123;-76
2021/05/18 02:00:46;;;;;;;0.80;0.40;;;12.60;65.10;;;;;;5053349;28;20409;-76
2021/05/18 02:03:12;;;;;;;0.57;0.30;;;12.60;65.00;;;;;;5053260;28;20029;-75
2021/05/18 02:05:41;;;;;;;0.90;0.27;;;12.50;65.10;;;;;;5052848;28;20036;-77
2021/05/18 02:08:10;;;;;;;1.70;0.40;;;12.50;65.50;;;;;;5063820;28;20044;-76
2021/05/18 02:10:38;;;;;;;0.87;0.47;;;12.40;65.70;;;;;;5047567;28;20127;-75
2021/05/18 02:13:04;;;;;;;4.73;2.50;;;12.50;65.90;;;;;;5067899;28;20036;-76
2021/05/18 02:15:52;;;;;;;2.40;2.13;;;12.40;66.00;;;;;;5043673;28;20025;-76
2021/05/18 02:26:20;;;;;;;2.87;0.90;;;12.40;66.70;;;;;;5070083;28;20086;-77
2021/05/18 02:28:45;;;;;;;1.70;0.73;;;12.30;66.90;;;;;;5053283;28;20021;-76
2021/05/18 02:31:12;;;;;;;0.67;0.30;;;12.30;67.20;;;;;;5060471;28;20423;-76
2021/05/18 02:33:38;;;;;;;1.47;0.50;;;12.30;67.10;;;;;;5061666;28;20056;-77
2021/05/18 02:36:04;;;;;;;2.47;0.40;;;12.30;67.00;;;;;;5068000;28;20020;-76
2021/05/18 02:38:30;;;;;;;2.30;0.60;;;12.30;66.90;;;;;;5050476;28;20088;-76
2021/05/18 02:40:56;;;;;;;3.90;0.50;;;12.30;67.00;;;;;;5045365;28;20505;-76
2021/05/18 02:43:27;;;;;;;6.40;0.60;;;12.30;66.90;;;;;;5051343;28;20055;-76
2021/05/18 02:51:03;;;;;;;2.57;0.70;;;12.30;67.40;;;;;;5070506;28;20102;-76
2021/05/18 02:53:29;;;;;;;1.43;0.57;;;12.30;67.60;;;;;;5053471;28;20032;-76
2021/05/18 02:56:08;;;;;;;1.47;0.37;;;12.20;67.70;;;;;;5069894;28;20051;-76
2021/05/18 02:58:36;;;;;;;0.90;0.50;;;12.20;67.90;;;;;;5065821;28;20051;-76
2021/05/18 03:01:02;;;;;;;2.43;0.30;;;12.20;68.00;;;;;;5054773;28;20025;-76
2021/05/18 03:03:28;;;;;;;1.27;0.30;;;12.20;68.00;;;;;;5066048;28;20044;-76
2021/05/18 03:05:54;;;;;;;1.07;0.57;;;12.20;68.20;;;;;;5056414;28;20024;-76
2021/05/18 03:08:20;;;;;;;1.40;0.30;;;12.20;68.10;;;;;;5042037;28;20037;-78
2021/05/18 03:10:47;;;;;;;3.13;0.40;;;12.10;68.10;;;;;;5052432;28;20035;-76
2021/05/18 03:13:13;;;;;;;0.30;0.20;;;12.20;68.70;;;;;;5071637;28;20028;-76
2021/05/18 03:15:39;;;;;;;0.33;0.30;;;12.20;68.10;;;;;;5055137;28;20712;-77
2021/05/18 03:18:05;;;;;;;1.03;0.30;;;12.20;68.00;;;;;;5055342;28;20028;-76
2021/05/18 03:20:31;;;;;;;5.30;0.47;;;12.10;68.10;;;;;;5054570;28;20138;-76
2021/05/18 03:22:57;;;;;;;3.17;1.03;;;12.10;68.30;;;;;;5055566;28;20070;-76
2021/05/18 03:25:23;;;;;;;1.10;0.50;;;12.10;68.60;;;;;;5053992;28;20720;-77
2021/05/18 03:27:51;;;;;;;1.13;0.70;;;12.10;68.70;;;;;;5054223;28;20131;-76
2021/05/18 03:35:48;;;;;;;6.33;2.20;;;12.10;68.70;;;;;;5083144;28;20086;-76
2021/05/18 03:38:23;;;;;;;1.60;0.83;;;12.10;68.90;;;;;;5054603;28;21299;-77
2021/05/18 03:40:51;;;;;;;1.23;0.80;;;12.10;68.80;;;;;;5069827;28;20030;-76
2021/05/18 03:48:38;;;;;;;3.35;0.70;;;12.10;68.70;;;;;;5073559;28;20412;-76
2021/05/18 03:54:23;;;;;;;2.30;0.67;;;12.00;68.90;;;;;;5073341;28;20035;-76
2021/05/18 04:05:11;;;;;;;4.13;1.10;;;12.00;69.30;;;;;;5072371;28;20031;-76
2021/05/18 04:21:23;;;;;;;;;;;12.00;69.40;;;;;;5061375;28;20112;-76
2021/05/18 05:08:34;;;;;;;6.27;1.20;;;12.30;68.80;;;;;;5068628;28;20400;-76
2021/05/18 05:16:13;;;;;;;5.03;1.30;;;12.30;69.00;;;;;;5062004;28;20131;-77
2021/05/18 05:18:39;;;;;;;3.53;1.13;;;12.40;69.00;;;;;;5053882;28;20127;-76
2021/05/18 05:21:05;;;;;;;2.57;1.33;;;12.40;68.90;;;;;;5072214;28;20028;-76
2021/05/18 05:23:31;;;;;;;2.20;1.43;;;12.40;69.00;;;;;;5068108;28;20032;-77
2021/05/18 05:25:56;;;;;;;9.97;1.53;;;12.40;68.90;;;;;;5036235;28;20017;-76
2021/05/18 05:28:22;;;;;;;6.80;1.40;;;12.40;68.80;;;;;;5066362;28;20021;-76
2021/05/18 05:30:48;;;;;;;2.27;1.17;;;12.50;68.60;;;;;;5047055;28;20389;-76
2021/05/18 05:33:14;;;;;;;3.40;1.40;;;12.50;68.50;;;;;;5069250;28;20041;-76
2021/05/18 05:35:40;;;;;;;4.30;1.87;;;12.50;68.50;;;;;;5049855;28;20109;-76
2021/05/18 05:38:06;;;;;;;5.57;1.90;;;12.60;68.30;;;;;;5053235;28;20393;-76
2021/05/18 05:40:33;;;;;;;7.87;2.30;;;12.60;68.20;;;;;;5070688;28;20025;-76
2021/05/18 05:42:59;;;;;;;4.50;2.00;;;12.70;68.10;;;;;;5071211;28;20056;-76
2021/05/18 05:45:25;;;;;;;4.60;2.10;;;12.80;67.80;;;;;;5053838;28;20067;-77
2021/05/18 05:47:51;;;;;;;6.63;2.57;;;12.70;67.30;;;;;;5071789;28;20036;-76
2021/05/18 05:50:17;;;;;;;9.50;3.00;;;12.60;67.70;;;;;;5067083;28;20036;-76
2021/05/18 05:52:43;;;;;;;6.03;2.90;;;12.70;67.50;;;;;;5044500;28;20044;-76
2021/05/18 05:55:10;;;;;;;6.00;3.20;;;12.70;67.40;;;;;;5043600;28;20094;-76
2021/05/18 05:57:37;;;;;;;8.43;3.30;;;12.70;67.30;;;;;;5052445;28;20020;-76
2021/05/18 06:00:08;;;;;;;9.80;3.07;;;12.70;67.30;;;;;;5046659;28;20028;-77
2021/05/18 06:02:34;;;;;;;13.17;3.30;;;12.70;67.10;;;;;;5051062;28;20036;-76
2021/05/18 06:05:00;;;;;;;11.07;3.50;;;12.80;67.00;;;;;;5070950;28;20028;-76
2021/05/18 06:07:26;;;;;;;4.37;1.60;;;12.80;66.80;;;;;;5072137;28;20036;-76
2021/05/18 06:09:58;;;;;;;4.73;1.50;;;12.80;66.90;;;;;;5070442;28;20099;-76
2021/05/18 06:15:33;;;;;;;4.77;1.37;;;12.90;67.20;;;;;;5066882;28;20113;-76
2021/05/18 06:34:23;;;;;;;4.40;1.30;;;12.90;66.40;;;;;;5069365;28;20094;-77
2021/05/18 06:47:33;;;;;;;5.13;2.07;;;13.00;66.90;;;;;;5078400;28;20501;-75
2021/05/18 06:50:28;;;;;;;6.90;2.00;;;13.10;66.90;;;;;;5038186;28;20079;-77
2021/05/18 06:52:47;;;;;;;3.50;1.70;;;13.10;66.60;;;;;;5069619;28;20059;-76
2021/05/18 06:55:17;;;;;;;4.27;1.30;;;13.20;66.40;;;;;;5055291;28;20033;-77
2021/05/18 06:57:47;;;;;;;4.73;1.60;;;13.30;66.20;;;;;;5064097;28;20022;-77
2021/05/18 07:00:18;;;;;;;6.13;1.90;;;13.40;65.90;;;;;;5056334;28;20056;-76
2021/05/18 07:02:45;;;;;;;12.43;2.10;;;13.40;65.70;;;;;;5066953;28;20521;-77
2021/05/18 07:08:21;;;;;;;11.70;2.47;;;13.50;65.00;;;;;;5044026;28;20044;-77
2021/05/18 07:10:49;;;;;;;4.20;1.67;;;13.70;64.70;;;;;;5068678;28;20024;-77
2021/05/18 07:13:15;;;;;;;11.07;2.00;;;13.80;64.40;;;;;;5056038;28;20040;-76
2021/05/18 07:15:42;;;;;;;4.20;2.00;;;13.90;64.00;;;;;;5048130;28;20037;-76
2021/05/18 07:18:08;;;;;;;4.77;1.80;;;13.90;63.60;;;;;;5056212;28;20024;-77
2021/05/18 07:20:34;;;;;;;8.30;2.60;;;14.00;63.40;;;;;;5073973;28;20481;-76
2021/05/18 07:23:07;;;;;;;4.53;1.80;;;14.00;63.20;;;;;;5056066;28;20050;-77
2021/05/18 07:25:33;;;;;;;7.17;1.70;;;14.00;63.20;;;;;;5067794;28;20119;-76
2021/05/18 07:28:00;;;;;;;4.37;1.93;;;14.20;63.40;;;;;;5052324;28;22060;-77
2021/05/18 07:30:26;;;;;;;5.37;1.73;;;14.30;63.40;;;;;;5073514;28;20350;-76
2021/05/18 07:33:00;;;;;;;5.33;1.70;;;14.60;63.20;;;;;;5069665;28;20036;-76
2021/05/18 07:35:26;;;;;;;4.73;1.87;;;14.80;62.70;;;;;;5051540;28;20040;-76
2021/05/18 07:37:52;;;;;;;7.67;1.80;;;14.90;62.20;;;;;;5072962;28;20025;-76
2021/05/18 07:40:18;;;;;;;7.07;2.20;;;15.10;62.50;;;;;;5054676;28;20048;-77
2021/05/18 07:42:44;;;;;;;4.37;2.37;;;15.30;62.10;;;;;;5050965;28;20067;-76
2021/05/18 07:45:10;;;;;;;6.87;1.90;;;15.50;61.60;;;;;;5069835;28;20086;-76
2021/05/18 07:47:37;;;;;;;5.93;1.87;;;15.60;61.10;;;;;;5072011;28;20025;-76
2021/05/18 07:50:11;;;;;;;6.03;2.00;;;15.70;60.80;;;;;;5054497;28;20485;-76
2021/05/18 08:00:59;;;;;;;3.53;1.10;;;16.00;60.10;;;;;;5070901;28;20044;-76
2021/05/18 08:06:10;;;;;;;5.60;1.92;;;16.00;59.90;;;;;;5072818;28;20040;-76
2021/05/18 08:08:38;;;;;;;7.07;1.35;;;15.90;59.70;;;;;;5053681;28;20036;-77
2021/05/18 08:11:04;;;;;;;3.22;1.60;;;15.90;59.60;;;;;;5054062;28;20077;-76
2021/05/18 08:13:30;;;;;;;3.27;1.40;;;15.90;59.70;;;;;;5066554;28;20104;-77
2021/05/18 08:49:22;;;;;;;2.95;1.40;;;15.90;60.90;;;;;;5070550;28;20048;-82
2021/05/18 09:47:07;;;;;;;1.33;0.73;;;17.50;52.80;;;;;;5067752;28;20116;-81
2021/05/18 10:36:36;;;;;;;0.38;0.25;;;18.70;49.60;;;;;;5054551;28;20025;-77
2021/05/18 10:39:22;;;;;;;0.82;0.47;;;18.80;49.50;;;;;;5038863;28;20025;-77
2021/05/18 10:41:49;;;;;;;0.82;0.20;;;18.90;49.40;;;;;;5040824;28;20029;-77
2021/05/18 10:44:15;;;;;;;2.22;0.32;;;18.90;49.60;;;;;;5052301;28;20060;-77
2021/05/18 10:46:52;;;;;;;1.85;0.40;;;19.00;49.80;;;;;;5053206;28;20090;-77
2021/05/18 10:49:30;;;;;;;3.25;0.28;;;19.10;49.40;;;;;;5053049;28;20032;-76
2021/05/18 10:52:01;;;;;;;0.98;0.68;;;19.10;50.20;;;;;;5048175;28;20021;-77
2021/05/18 10:54:42;;;;;;;1.80;0.70;;;19.30;50.30;;;;;;5059460;28;20067;-78
2021/05/18 10:57:11;;;;;;;1.13;0.50;;;19.50;50.20;;;;;;5071511;28;20458;-77
2021/05/18 10:59:41;;;;;;;1.20;0.65;;;19.60;49.60;;;;;;5045292;28;20028;-76
2021/05/18 11:02:14;;;;;;;2.70;0.50;;;19.80;49.00;;;;;;5066938;28;20107;-77
2021/05/18 11:04:53;;;;;;;3.30;0.60;;;19.70;48.00;;;;;;5044422;28;20037;-77
2021/05/18 11:07:22;;;;;;;2.30;0.47;;;19.80;47.70;;;;;;5034749;28;20037;-77
2021/05/18 11:09:53;;;;;;;1.02;0.30;;;19.90;47.60;;;;;;5066800;28;20359;-76
2021/05/18 11:12:20;;;;;;;0.50;0.30;;;19.80;47.20;;;;;;5052970;28;20032;-77
2021/05/18 11:14:50;;;;;;;1.55;0.40;;;19.50;46.90;;;;;;5070825;28;20029;-76
2021/05/18 11:17:46;;;;;;;2.25;0.43;;;19.30;47.10;;;;;;5063205;28;20083;-76
2021/05/18 11:20:26;;;;;;;1.67;0.60;;;19.10;47.20;;;;;;5042300;28;20033;-77
2021/05/18 11:25:54;;;;;;;0.77;0.30;;;19.00;47.70;;;;;;5068417;28;20556;-77
2021/05/18 11:28:20;;;;;;;2.72;0.60;;;19.20;48.10;;;;;;5054224;28;20531;-77
2021/05/18 11:30:48;;;;;;;1.95;0.30;;;19.30;48.10;;;;;;5036811;28;20057;-76
2021/05/18 11:33:18;;;;;;;0.85;0.40;;;19.40;48.10;;;;;;5065880;28;20542;-77
2021/05/18 11:35:44;;;;;;;0.43;0.30;;;19.60;47.80;;;;;;5054362;28;20028;-77
2021/05/18 11:38:15;;;;;;;1.17;0.28;;;19.70;47.20;;;;;;5041636;28;20040;-77
2021/05/18 11:40:50;;;;;;;0.70;0.40;;;19.80;46.60;;;;;;5052578;28;20028;-77
2021/05/18 11:43:33;;;;;;;10.35;1.00;;;19.80;46.40;;;;;;5055871;28;20126;-76
2021/05/18 11:46:17;;;;;;;0.38;0.20;;;19.60;46.40;;;;;;5049868;28;20477;-76
2021/05/18 11:49:07;;;;;;;0.63;0.20;;;19.40;46.30;;;;;;5053798;28;20112;-82
2021/05/18 11:51:53;;;;;;;2.33;0.28;;;19.20;46.50;;;;;;5066622;28;20036;-82
2021/05/18 11:54:22;;;;;;;2.33;0.30;;;19.10;46.70;;;;;;5047786;28;20028;-82
2021/05/18 11:56:51;;;;;;;1.10;0.40;;;18.80;47.20;;;;;;5052913;28;20032;-82
2021/05/18 11:59:20;;;;;;;1.02;0.43;;;18.70;47.70;;;;;;5063946;28;20025;-82
2021/05/18 12:02:01;;;;;;;1.10;0.40;;;18.40;48.30;;;;;;5067057;28;20143;-81
2021/05/18 12:04:28;;;;;;;2.05;0.30;;;18.30;49.70;;;;;;5074736;28;20070;-82
2021/05/18 12:06:55;;;;;;;3.20;0.28;;;18.10;50.40;;;;;;5056668;28;20028;-82
2021/05/18 12:09:21;;;;;;;2.78;0.40;;;17.90;50.40;;;;;;5073970;28;20047;-82
2021/05/18 12:11:55;;;;;;;0.73;0.30;;;17.80;50.90;;;;;;5056357;28;20033;-82
2021/05/18 12:14:23;;;;;;;4.13;0.30;;;17.70;51.40;;;;;;5074047;28;20029;-83
2021/05/18 12:16:50;;;;;;;0.10;0.10;;;17.60;51.00;;;;;;5038364;28;20028;-81
2021/05/18 12:19:17;;;;;;;0.43;0.20;;;17.20;50.90;;;;;;5045317;28;20420;-81
2021/05/18 12:21:46;;;;;;;0.63;0.20;;;17.00;50.70;;;;;;5079191;28;20480;-82
2021/05/18 12:24:15;;;;;;;0.20;0.10;;;16.80;51.00;;;;;;5052770;28;20052;-82
2021/05/18 12:27:02;;;;;;;0.45;0.10;;;16.80;51.70;;;;;;5059742;28;20029;-83
2021/05/18 12:29:37;;;;;;;0.20;0.20;;;16.80;51.90;;;;;;5043496;28;20036;-81
2021/05/18 12:32:31;;;;;;;0.93;0.38;;;16.80;51.50;;;;;;5073173;28;20045;-82
2021/05/18 12:35:03;;;;;;;0.40;0.28;;;16.90;51.30;;;;;;5056405;28;20035;-82
2021/05/18 12:37:48;;;;;;;0.90;0.23;;;17.00;51.20;;;;;;5055751;28;20044;-82
2021/05/18 12:40:25;;;;;;;1.27;0.30;;;17.10;50.80;;;;;;5055926;28;20078;-82
2021/05/18 12:42:52;;;;;;;0.60;0.35;;;17.20;50.60;;;;;;5074019;28;20810;-82
2021/05/18 12:45:24;;;;;;;0.52;0.25;;;17.10;50.40;;;;;;5051756;28;20033;-82
2021/05/18 12:47:53;;;;;;;1.45;0.47;;;17.20;50.40;;;;;;5053780;28;20527;-82
2021/05/18 12:50:21;;;;;;;1.17;0.30;;;17.30;49.90;;;;;;5044985;28;20123;-82
2021/05/18 12:52:50;;;;;;;0.95;0.10;;;17.20;49.70;;;;;;5072355;28;20104;-82
2021/05/18 12:55:27;;;;;;;0.30;0.30;;;17.10;49.60;;;;;;5044698;28;20036;-82
2021/05/18 12:57:56;;;;;;;1.50;0.20;;;17.00;49.40;;;;;;5071265;28;20336;-82
2021/05/18 13:00:40;;;;;;;2.20;0.43;;;17.20;49.40;;;;;;5053507;28;20039;-82
2021/05/18 13:03:18;;;;;;;2.72;0.20;;;17.30;49.10;;;;;;5054427;28;20019;-82
2021/05/18 13:05:51;;;;;;;0.30;0.20;;;17.30;48.70;;;;;;5050590;28;20028;-82
2021/05/18 13:08:19;;;;;;;1.00;0.30;;;17.20;48.30;;;;;;5066962;28;20035;-81
2021/05/18 13:11:04;;;;;;;0.85;0.10;;;17.10;48.90;;;;;;5053246;28;20119;-82
2021/05/18 13:13:39;;;;;;;0.30;0.20;;;17.30;49.10;;;;;;5035333;28;20053;-81
2021/05/18 13:16:19;;;;;;;2.20;0.30;;;17.40;49.00;;;;;;5047746;28;20032;-82
2021/05/18 13:19:05;;;;;;;1.38;0.30;;;17.50;48.80;;;;;;5069273;28;20048;-82
2021/05/18 13:21:49;;;;;;;1.27;0.28;;;17.70;48.70;;;;;;5070393;28;20024;-82
2021/05/18 13:26:53;;;;;;;0.10;0.10;;;17.70;48.30;;;;;;5069858;28;20116;-82
2021/05/18 13:29:19;;;;;;;0.77;0.20;;;17.60;47.40;;;;;;5053779;28;20039;-82
2021/05/18 13:31:47;;;;;;;0.20;0.20;;;17.50;47.10;;;;;;5054566;28;20053;-81
2021/05/18 13:34:13;;;;;;;0.45;0.20;;;17.40;47.00;;;;;;5054432;28;20484;-81
2021/05/18 13:36:41;;;;;;;1.00;0.20;;;17.30;47.10;;;;;;5054239;28;20102;-82
2021/05/18 13:39:11;;;;;;;1.67;0.20;;;17.30;47.20;;;;;;5053557;28;20016;-82
2021/05/18 13:41:37;;;;;;;0.25;0.10;;;17.40;47.50;;;;;;5053506;28;20400;-82
2021/05/18 13:44:06;;;;;;;1.33;0.40;;;17.40;47.20;;;;;;5047989;28;20028;-82
2021/05/18 13:46:32;;;;;;;1.02;0.22;;;17.60;47.10;;;;;;5037383;28;20017;-81
2021/05/18 13:48:59;;;;;;;1.85;0.20;;;17.70;47.40;;;;;;5046319;28;20027;-82
2021/05/18 13:51:25;;;;;;;3.55;0.20;;;17.90;47.20;;;;;;5046126;28;20485;-81
2021/05/18 13:53:51;;;;;;;0.22;0.13;;;17.70;46.50;;;;;;5038335;28;20088;-82
2021/05/18 13:56:23;;;;;;;0.80;0.20;;;17.70;46.70;;;;;;5055487;28;20025;-81
2021/05/18 13:58:53;;;;;;;0.20;0.10;;;17.70;46.90;;;;;;5054550;28;20060;-82
2021/05/18 14:01:20;;;;;;;0.13;0.10;;;17.80;46.60;;;;;;5054480;28;20246;-81
2021/05/18 14:03:47;;;;;;;0.98;0.20;;;17.80;46.40;;;;;;5067325;28;20028;-82
2021/05/18 14:06:14;;;;;;;0.45;0.20;;;17.80;46.40;;;;;;5053309;28;20468;-82
2021/05/18 14:08:41;;;;;;;0.25;0.20;;;17.80;46.50;;;;;;5071172;28;20028;-82
2021/05/18 14:11:12;;;;;;;3.70;0.20;;;17.90;46.20;;;;;;5053023;28;20028;-82
2021/05/18 14:13:43;;;;;;;0.28;0.10;;;17.80;45.70;;;;;;5071803;28;20107;-81
2021/05/18 14:16:10;;;;;;;1.85;0.20;;;17.80;45.80;;;;;;5051834;28;20098;-81
2021/05/18 14:18:37;;;;;;;0.25;0.15;;;17.80;45.60;;;;;;5053059;28;20020;-81
2021/05/18 14:21:04;;;;;;;1.65;0.10;;;17.80;45.60;;;;;;5053710;28;20090;-82
2021/05/18 14:23:43;;;;;;;0.10;0.10;;;17.80;45.30;;;;;;5049547;28;20108;-82
2021/05/18 14:26:09;;;;;;;0.40;0.10;;;17.80;45.40;;;;;;5057991;28;20505;-82
2021/05/18 14:28:36;;;;;;;0.55;0.20;;;17.70;45.50;;;;;;5047299;28;20676;-82
2021/05/18 14:31:05;;;;;;;3.55;0.20;;;17.90;45.70;;;;;;5051334;28;20489;-82
2021/05/18 14:33:31;;;;;;;0.13;0.10;;;17.90;45.30;;;;;;5051123;28;20024;-81
2021/05/18 14:35:56;;;;;;;0.98;0.30;;;17.80;45.30;;;;;;5047294;28;20158;-81
2021/05/18 14:38:24;;;;;;;0.15;0.15;;;17.70;45.70;;;;;;5048564;28;20021;-82
2021/05/18 14:56:49;;;;;;;0.60;0.20;;;17.80;45.40;;;;;;5069790;28;20018;-82
2021/05/18 14:59:15;;;;;;;1.30;0.30;;;17.80;45.30;;;;;;5037543;28;20444;-81
2021/05/18 15:01:40;;;;;;;0.90;0.30;;;17.80;45.20;;;;;;5050450;28;20025;-81
2021/05/18 15:04:06;;;;;;;2.15;1.10;;;17.80;45.40;;;;;;5056075;28;20021;-82
2021/05/18 15:06:32;;;;;;;0.20;0.20;;;17.70;45.70;;;;;;5066019;28;20021;-82
2021/05/18 15:08:58;;;;;;;0.30;0.10;;;17.70;45.70;;;;;;5052586;28;20029;-82
2021/05/18 15:11:24;;;;;;;0.40;0.20;;;17.60;46.00;;;;;;5056970;28;20070;-81
2021/05/18 15:13:50;;;;;;;0.70;0.30;;;17.60;45.90;;;;;;5049003;28;20044;-82
2021/05/18 15:16:16;;;;;;;2.65;0.25;;;17.60;45.90;;;;;;5053511;28;20039;-82
2021/05/18 15:18:44;;;;;;;0.85;0.25;;;17.60;45.90;;;;;;5046238;28;20020;-82
2021/05/18 15:21:10;;;;;;;0.38;0.20;;;17.70;45.90;;;;;;5037767;28;20032;-82
2021/05/18 15:23:39;;;;;;;0.22;0.20;;;17.70;45.90;;;;;;5059436;28;20020;-82
2021/05/18 15:26:04;;;;;;;1.63;0.85;;;17.70;45.80;;;;;;5056719;28;20066;-83
2021/05/18 15:28:30;;;;;;;3.25;0.65;;;17.80;45.80;;;;;;5064938;28;20025;-82
2021/05/18 15:30:56;;;;;;;0.60;0.32;;;17.70;45.80;;;;;;5051083;28;20049;-82
2021/05/18 15:33:22;;;;;;;1.98;0.50;;;17.70;46.00;;;;;;5061022;28;20060;-82
2021/05/18 15:35:48;;;;;;;0.43;0.20;;;17.70;46.20;;;;;;5044505;28;20510;-82
2021/05/18 15:38:14;;;;;;;1.75;0.35;;;17.70;46.30;;;;;;5074583;28;20074;-82
2021/05/18 15:40:39;;;;;;;0.82;0.32;;;17.40;46.40;;;;;;5056354;28;20038;-82
2021/05/18 15:43:05;;;;;;;0.50;0.22;;;17.40;47.00;;;;;;5053888;28;20056;-82
2021/05/18 15:45:31;;;;;;;1.38;0.50;;;17.40;47.20;;;;;;5061563;28;20025;-82
2021/05/18 15:47:57;;;;;;;0.70;0.50;;;17.30;47.50;;;;;;5065549;28;20033;-82
2021/05/18 15:50:22;;;;;;;0.63;0.40;;;17.30;47.90;;;;;;5046798;28;20488;-82
2021/05/18 15:52:48;;;;;;;3.25;0.52;;;17.30;48.10;;;;;;5058018;28;20107;-82
2021/05/18 15:55:14;;;;;;;0.60;0.40;;;17.40;48.30;;;;;;5044256;28;20029;-82
2021/05/18 15:57:40;;;;;;;2.63;1.10;;;17.40;49.30;;;;;;5054869;28;20074;-82
2021/05/18 16:00:06;;;;;;;2.38;0.55;;;17.30;49.70;;;;;;5047559;28;20021;-82
2021/05/18 16:02:32;;;;;;;2.63;0.40;;;17.30;49.50;;;;;;5055421;28;20016;-82
2021/05/18 16:04:58;;;;;;;0.82;0.30;;;17.20;49.70;;;;;;5038399;28;20116;-82
2021/05/18 16:07:25;;;;;;;2.03;0.40;;;17.10;49.80;;;;;;5065227;28;20029;-82
2021/05/18 16:09:51;;;;;;;1.42;0.52;;;17.10;50.00;;;;;;5057274;28;20120;-81
2021/05/18 16:12:17;;;;;;;1.38;0.40;;;17.00;50.10;;;;;;5058922;28;20052;-82
2021/05/18 16:14:45;;;;;;;5.25;0.57;;;17.00;50.10;;;;;;5045579;28;20035;-82
2021/05/18 16:17:11;;;;;;;0.70;0.50;;;17.00;50.00;;;;;;5052028;28;20082;-82
2021/05/18 16:19:37;;;;;;;0.47;0.30;;;17.00;50.00;;;;;;5055061;28;20032;-81
2021/05/18 16:22:03;;;;;;;3.47;0.50;;;16.90;50.00;;;;;;5063786;28;20020;-82
2021/05/18 16:24:33;;;;;;;2.97;0.40;;;16.90;50.10;;;;;;5057511;28;20953;-83
2021/05/18 16:26:59;;;;;;;0.85;0.35;;;16.90;50.00;;;;;;5054251;28;20079;-82
2021/05/18 16:29:27;;;;;;;3.47;0.88;;;16.90;50.00;;;;;;5056229;28;20028;-82
2021/05/18 16:31:52;;;;;;;2.22;0.50;;;16.90;50.10;;;;;;5053857;28;20091;-82
2021/05/18 16:34:18;;;;;;;1.58;0.40;;;16.90;50.00;;;;;;5050984;28;20476;-82
2021/05/18 16:36:47;;;;;;;3.45;1.10;;;16.80;50.10;;;;;;5055130;28;20028;-82
2021/05/18 16:39:15;;;;;;;0.70;0.40;;;16.80;50.20;;;;;;5037132;28;20436;-82
2021/05/18 16:41:42;;;;;;;0.65;0.43;;;16.80;50.40;;;;;;5058255;28;20024;-82
2021/05/18 16:44:10;;;;;;;4.68;0.50;;;16.80;50.50;;;;;;5054123;28;20496;-82
2021/05/18 16:46:36;;;;;;;0.60;0.40;;;16.70;50.90;;;;;;5055488;28;20031;-82
2021/05/18 16:49:03;;;;;;;2.28;1.05;;;16.70;50.40;;;;;;5055798;28;20021;-82
2021/05/18 16:51:29;;;;;;;3.20;0.47;;;16.70;50.40;;;;;;5055045;28;20039;-82
2021/05/18 16:53:55;;;;;;;0.60;0.40;;;16.70;50.50;;;;;;5056301;28;20017;-82
2021/05/18 16:56:21;;;;;;;1.67;0.40;;;16.70;50.60;;;;;;5049423;28;20051;-82
2021/05/18 16:58:50;;;;;;;2.38;0.38;;;16.70;50.80;;;;;;5071436;28;20025;-82
2021/05/18 17:01:16;;;;;;;1.20;0.60;;;16.70;50.70;;;;;;5054059;28;20033;-77
2021/05/18 17:03:45;;;;;;;2.38;0.65;;;16.70;50.90;;;;;;5061271;28;20056;-76
2021/05/18 17:06:10;;;;;;;2.90;1.02;;;16.60;51.00;;;;;;5042020;28;20050;-76
2021/05/18 17:08:36;;;;;;;2.35;0.98;;;16.60;51.50;;;;;;5054629;28;20025;-77
2021/05/18 17:11:02;;;;;;;2.53;1.45;;;16.40;52.10;;;;;;5049614;28;20029;-78
2021/05/18 17:13:28;;;;;;;3.38;1.10;;;16.40;52.80;;;;;;5055707;28;20025;-76
2021/05/18 17:15:54;;;;;;;1.63;0.40;;;16.40;53.40;;;;;;5039113;28;20398;-77
2021/05/18 17:18:20;;;;;;;0.65;0.30;;;16.30;53.70;;;;;;5054409;28;20048;-77
2021/05/18 17:20:46;;;;;;;1.07;0.60;;;16.10;54.20;;;;;;5053232;28;20103;-77
2021/05/18 17:23:12;;;;;;;2.97;1.70;;;16.10;54.40;;;;;;5071938;28;20618;-78
2021/05/18 17:25:38;;;;;;;1.37;0.73;;;16.10;54.50;;;;;;5064906;28;20457;-77
2021/05/18 17:28:04;;;;;;;1.83;1.20;;;16.10;54.70;;;;;;5072956;28;20032;-77
2021/05/18 17:30:30;;;;;;;0.57;0.47;;;16.10;55.20;;;;;;5050132;28;20493;-77
2021/05/18 17:32:56;;;;;;;2.70;1.43;;;16.00;55.10;;;;;;5071505;28;20040;-77
2021/05/18 17:35:24;;;;;;;1.70;0.67;;;15.90;55.30;;;;;;5071639;28;20481;-77
2021/05/18 17:37:51;;;;;;;0.30;0.20;;;15.90;55.30;;;;;;5065891;28;20692;-77
2021/05/18 17:40:17;;;;;;;0.97;0.23;;;15.70;55.40;;;;;;5045731;28;20028;-77
2021/05/18 17:42:43;;;;;;;0.80;0.30;;;15.60;55.60;;;;;;5072201;28;20163;-77
2021/05/18 17:45:12;;;;;;;1.43;0.57;;;15.50;55.80;;;;;;5043942;28;20056;-77
2021/05/18 17:47:41;;;;;;;2.50;0.40;;;15.40;56.20;;;;;;5059537;28;20051;-77
2021/05/18 17:50:09;;;;;;;0.70;0.40;;;15.40;56.40;;;;;;5052588;28;20444;-77
2021/05/18 17:52:35;;;;;;;0.47;0.10;;;15.30;56.50;;;;;;5063954;28;20560;-78
2021/05/18 17:55:03;;;;;;;0.40;0.20;;;15.20;56.90;;;;;;5047644;28;20077;-76
2021/05/18 17:57:28;;;;;;;0.23;0.17;;;15.00;57.60;;;;;;5070877;28;20082;-77
2021/05/18 17:59:54;;;;;;;2.70;0.20;;;15.00;58.30;;;;;;5068857;28;20021;-77
2021/05/18 18:02:24;;;;;;;0.93;0.67;;;14.90;59.10;;;;;;5053563;28;20036;-76
2021/05/18 18:04:51;;;;;;;1.87;0.60;;;15.00;59.60;;;;;;5071105;28;20036;-77
2021/05/18 18:07:16;;;;;;;0.57;0.50;;;15.00;60.00;;;;;;5050455;28;20037;-76